Главная страница
METAR-TAF:

METAR-TAF

Аэропорты :

Арвидсъяур, Швеция

широта: 65-35-25N, долгота: 019-16-55E, высота над уровнем моря: 379 м

Текущие метеонаблюдения

Эта сводка был подготовлена 33 минут назад, в 16:50 UTC
Ветер 8 Узел от северный
Температура 2°C
Влажность 93%
Давление 1013 hPa
Видимость 10 км и более
Сплошная облачность на высоте 600 фута

METAR: ESNX 141650Z 01008KT 9999 OVC006 02/01 Q1013

Время: 19:23 (17:23 UTC)

Прогноз

Эта сводка был подготовлена 2 часа и 53 минут назад, в 14:30 UTC
Прогноз действительный с 14-го 15 UTC до 14-го 19 UTC
Ветер 10 Узел от северный
Видимость 10 км и более
Сплошная облачность на высоте 1000 фута
Вероятность 40%
С 14-го 15 UTC до 14-го 19 UTC
Сплошная облачность на высоте 800 фута

TAF: ESNX 141430Z 1415/1419 01010KT 9999 OVC010 PROB40 1415/1419 OVC008

Метеонаблюдения и прогнозы для более 4000 аэропортов (сводки METAR и TAF).

Имеющиеся станции представлены на карте желтыми и красными точками.

Чтобы увидеть название станции, наведите на нее мышь.

Затем щелкните, чтобы увидеть метеонаблюдения и метеопрогнозы.

Управление картой: чтобы увеличить масштаб, щелкните зеленые кнопки с черным крестиком; чтобы уменьшить масштаб, щелкните зеленую кнопку с тире; для просмотра соседних карт щелкайте зеленые стрелки.


METAR-TAF: